sensor_id;sensor_type;location;lat;lon;timestamp;P1;durP1;ratioP1;P2;durP2;ratioP2
22565;SDS011;11449;51.330;19.378;2024-03-02T00:03:50;160.90;;;37.20;;
22565;SDS011;11449;51.330;19.378;2024-03-02T00:08:58;136.30;;;33.80;;
22565;SDS011;11449;51.330;19.378;2024-03-02T00:14:05;135.40;;;34.80;;
22565;SDS011;11449;51.330;19.378;2024-03-02T00:19:13;131.90;;;33.30;;
22565;SDS011;11449;51.330;19.378;2024-03-02T00:24:31;123.30;;;31.80;;
22565;SDS011;11449;51.330;19.378;2024-03-02T00:29:40;118.70;;;33.90;;
22565;SDS011;11449;51.330;19.378;2024-03-02T00:34:47;137.40;;;34.10;;
22565;SDS011;11449;51.330;19.378;2024-03-02T00:39:55;114.00;;;31.70;;
22565;SDS011;11449;51.330;19.378;2024-03-02T00:45:07;153.50;;;35.20;;
22565;SDS011;11449;51.330;19.378;2024-03-02T00:50:15;143.70;;;33.60;;
22565;SDS011;11449;51.330;19.378;2024-03-02T00:55:23;124.80;;;32.10;;
22565;SDS011;11449;51.330;19.378;2024-03-02T01:00:30;112.50;;;30.50;;
22565;SDS011;11449;51.330;19.378;2024-03-02T01:05:43;121.90;;;31.60;;
22565;SDS011;11449;51.330;19.378;2024-03-02T01:10:51;158.80;;;33.30;;
22565;SDS011;11449;51.330;19.378;2024-03-02T01:15:59;131.20;;;31.50;;
22565;SDS011;11449;51.330;19.378;2024-03-02T01:21:07;131.90;;;32.70;;
22565;SDS011;11449;51.330;19.378;2024-03-02T01:26:15;116.70;;;31.60;;
22565;SDS011;11449;51.330;19.378;2024-03-02T01:31:23;116.80;;;31.30;;
22565;SDS011;11449;51.330;19.378;2024-03-02T01:36:31;137.30;;;44.90;;
22565;SDS011;11449;51.330;19.378;2024-03-02T01:41:38;124.80;;;43.10;;
22565;SDS011;11449;51.330;19.378;2024-03-02T01:46:46;130.20;;;33.10;;
22565;SDS011;11449;51.330;19.378;2024-03-02T01:51:54;171.10;;;35.30;;
22565;SDS011;11449;51.330;19.378;2024-03-02T01:57:02;169.40;;;36.70;;
22565;SDS011;11449;51.330;19.378;2024-03-02T02:02:09;126.00;;;31.60;;
22565;SDS011;11449;51.330;19.378;2024-03-02T02:07:17;122.40;;;30.90;;
22565;SDS011;11449;51.330;19.378;2024-03-02T02:12:25;125.60;;;32.60;;
22565;SDS011;11449;51.330;19.378;2024-03-02T02:17:32;135.50;;;46.20;;
22565;SDS011;11449;51.330;19.378;2024-03-02T02:22:40;128.40;;;38.90;;
22565;SDS011;11449;51.330;19.378;2024-03-02T02:27:48;146.20;;;45.30;;
22565;SDS011;11449;51.330;19.378;2024-03-02T02:32:56;171.90;;;51.30;;
22565;SDS011;11449;51.330;19.378;2024-03-02T02:38:03;154.80;;;48.20;;
22565;SDS011;11449;51.330;19.378;2024-03-02T02:43:11;147.90;;;55.60;;
22565;SDS011;11449;51.330;19.378;2024-03-02T02:48:19;120.80;;;46.50;;
22565;SDS011;11449;51.330;19.378;2024-03-02T02:53:27;138.50;;;49.40;;
22565;SDS011;11449;51.330;19.378;2024-03-02T02:58:34;132.90;;;56.00;;
22565;SDS011;11449;51.330;19.378;2024-03-02T03:03:43;158.60;;;73.90;;
22565;SDS011;11449;51.330;19.378;2024-03-02T03:08:50;221.10;;;77.20;;
22565;SDS011;11449;51.330;19.378;2024-03-02T03:13:58;169.10;;;43.40;;
22565;SDS011;11449;51.330;19.378;2024-03-02T03:19:07;146.70;;;42.40;;
22565;SDS011;11449;51.330;19.378;2024-03-02T03:24:16;194.70;;;44.80;;
22565;SDS011;11449;51.330;19.378;2024-03-02T03:29:23;124.80;;;36.90;;
22565;SDS011;11449;51.330;19.378;2024-03-02T03:34:34;128.60;;;40.20;;
22565;SDS011;11449;51.330;19.378;2024-03-02T03:39:42;131.90;;;44.10;;
22565;SDS011;11449;51.330;19.378;2024-03-02T03:44:49;157.80;;;42.70;;
22565;SDS011;11449;51.330;19.378;2024-03-02T03:49:57;176.00;;;46.30;;
22565;SDS011;11449;51.330;19.378;2024-03-02T03:55:05;146.20;;;44.80;;
22565;SDS011;11449;51.330;19.378;2024-03-02T04:00:13;128.60;;;35.20;;
22565;SDS011;11449;51.330;19.378;2024-03-02T04:05:21;127.90;;;36.30;;
22565;SDS011;11449;51.330;19.378;2024-03-02T04:10:28;131.10;;;37.00;;
22565;SDS011;11449;51.330;19.378;2024-03-02T04:15:37;123.50;;;35.70;;
22565;SDS011;11449;51.330;19.378;2024-03-02T04:20:45;101.70;;;34.60;;
22565;SDS011;11449;51.330;19.378;2024-03-02T04:25:53;156.20;;;41.70;;
22565;SDS011;11449;51.330;19.378;2024-03-02T04:31:00;159.60;;;35.90;;
22565;SDS011;11449;51.330;19.378;2024-03-02T04:36:08;111.70;;;30.50;;
22565;SDS011;11449;51.330;19.378;2024-03-02T04:41:17;121.10;;;31.70;;
22565;SDS011;11449;51.330;19.378;2024-03-02T04:46:24;108.20;;;31.50;;
22565;SDS011;11449;51.330;19.378;2024-03-02T04:51:32;130.50;;;35.50;;
22565;SDS011;11449;51.330;19.378;2024-03-02T04:56:40;139.70;;;38.20;;
22565;SDS011;11449;51.330;19.378;2024-03-02T05:01:51;179.50;;;45.60;;
22565;SDS011;11449;51.330;19.378;2024-03-02T05:06:59;180.30;;;43.60;;
22565;SDS011;11449;51.330;19.378;2024-03-02T05:12:07;167.10;;;40.20;;
22565;SDS011;11449;51.330;19.378;2024-03-02T05:17:37;122.00;;;37.20;;
22565;SDS011;11449;51.330;19.378;2024-03-02T05:22:40;141.00;;;39.10;;
22565;SDS011;11449;51.330;19.378;2024-03-02T05:27:47;147.20;;;38.80;;
22565;SDS011;11449;51.330;19.378;2024-03-02T05:32:55;156.80;;;40.60;;
22565;SDS011;11449;51.330;19.378;2024-03-02T05:38:03;146.50;;;36.00;;
22565;SDS011;11449;51.330;19.378;2024-03-02T05:43:10;121.50;;;32.60;;
22565;SDS011;11449;51.330;19.378;2024-03-02T05:48:19;121.10;;;33.30;;
22565;SDS011;11449;51.330;19.378;2024-03-02T05:53:26;110.30;;;32.30;;
22565;SDS011;11449;51.330;19.378;2024-03-02T05:58:34;114.10;;;32.70;;
22565;SDS011;11449;51.330;19.378;2024-03-02T06:04:15;128.70;;;34.80;;
22565;SDS011;11449;51.330;19.378;2024-03-02T06:09:18;126.20;;;30.90;;
22565;SDS011;11449;51.330;19.378;2024-03-02T06:14:27;121.90;;;32.40;;
22565;SDS011;11449;51.330;19.378;2024-03-02T06:19:35;123.30;;;33.80;;
22565;SDS011;11449;51.330;19.378;2024-03-02T06:24:42;99.90;;;28.50;;
22565;SDS011;11449;51.330;19.378;2024-03-02T06:29:50;165.20;;;34.90;;
22565;SDS011;11449;51.330;19.378;2024-03-02T06:34:59;157.00;;;34.80;;
22565;SDS011;11449;51.330;19.378;2024-03-02T06:40:07;121.70;;;32.60;;
22565;SDS011;11449;51.330;19.378;2024-03-02T06:45:15;137.30;;;35.00;;
22565;SDS011;11449;51.330;19.378;2024-03-02T06:50:23;130.80;;;34.20;;
22565;SDS011;11449;51.330;19.378;2024-03-02T06:55:30;115.40;;;31.60;;
22565;SDS011;11449;51.330;19.378;2024-03-02T07:00:38;119.40;;;31.00;;
22565;SDS011;11449;51.330;19.378;2024-03-02T07:05:46;127.10;;;34.20;;
22565;SDS011;11449;51.330;19.378;2024-03-02T07:10:55;164.50;;;39.80;;
22565;SDS011;11449;51.330;19.378;2024-03-02T07:16:04;123.80;;;35.80;;
22565;SDS011;11449;51.330;19.378;2024-03-02T07:21:35;115.20;;;34.50;;
22565;SDS011;11449;51.330;19.378;2024-03-02T07:26:43;120.10;;;36.00;;
22565;SDS011;11449;51.330;19.378;2024-03-02T07:31:51;170.50;;;41.70;;
22565;SDS011;11449;51.330;19.378;2024-03-02T07:36:59;163.60;;;43.00;;
22565;SDS011;11449;51.330;19.378;2024-03-02T07:42:07;155.00;;;46.90;;
22565;SDS011;11449;51.330;19.378;2024-03-02T07:47:14;138.00;;;52.10;;
22565;SDS011;11449;51.330;19.378;2024-03-02T07:52:22;181.10;;;54.80;;
22565;SDS011;11449;51.330;19.378;2024-03-02T07:57:30;132.00;;;43.90;;
22565;SDS011;11449;51.330;19.378;2024-03-02T08:02:38;136.50;;;50.10;;
22565;SDS011;11449;51.330;19.378;2024-03-02T08:07:45;147.50;;;51.80;;
22565;SDS011;11449;51.330;19.378;2024-03-02T08:12:53;191.40;;;55.70;;
22565;SDS011;11449;51.330;19.378;2024-03-02T08:18:02;189.10;;;57.70;;
22565;SDS011;11449;51.330;19.378;2024-03-02T08:23:10;139.50;;;45.80;;
22565;SDS011;11449;51.330;19.378;2024-03-02T08:28:17;136.00;;;46.90;;
22565;SDS011;11449;51.330;19.378;2024-03-02T08:33:25;133.10;;;49.40;;
22565;SDS011;11449;51.330;19.378;2024-03-02T08:38:33;130.60;;;45.30;;
22565;SDS011;11449;51.330;19.378;2024-03-02T08:43:41;128.80;;;45.50;;
22565;SDS011;11449;51.330;19.378;2024-03-02T08:48:49;168.40;;;52.10;;
22565;SDS011;11449;51.330;19.378;2024-03-02T08:53:57;150.90;;;55.90;;
22565;SDS011;11449;51.330;19.378;2024-03-02T08:59:05;146.50;;;66.40;;
22565;SDS011;11449;51.330;19.378;2024-03-02T09:04:13;127.40;;;55.80;;
22565;SDS011;11449;51.330;19.378;2024-03-02T09:09:20;142.60;;;69.70;;
22565;SDS011;11449;51.330;19.378;2024-03-02T09:14:28;153.40;;;88.80;;
22565;SDS011;11449;51.330;19.378;2024-03-02T09:19:36;149.10;;;80.00;;
22565;SDS011;11449;51.330;19.378;2024-03-02T09:24:44;158.40;;;85.10;;
22565;SDS011;11449;51.330;19.378;2024-03-02T09:29:51;180.80;;;72.60;;
22565;SDS011;11449;51.330;19.378;2024-03-02T09:34:59;161.50;;;65.30;;
22565;SDS011;11449;51.330;19.378;2024-03-02T09:40:07;150.10;;;81.80;;
22565;SDS011;11449;51.330;19.378;2024-03-02T09:45:15;145.40;;;79.30;;
22565;SDS011;11449;51.330;19.378;2024-03-02T09:50:23;171.80;;;80.10;;
22565;SDS011;11449;51.330;19.378;2024-03-02T09:55:31;158.10;;;76.90;;
22565;SDS011;11449;51.330;19.378;2024-03-02T10:00:38;149.80;;;79.80;;
22565;SDS011;11449;51.330;19.378;2024-03-02T10:05:46;202.80;;;121.40;;
22565;SDS011;11449;51.330;19.378;2024-03-02T10:10:54;225.40;;;113.20;;
22565;SDS011;11449;51.330;19.378;2024-03-02T10:16:11;217.30;;;105.20;;
22565;SDS011;11449;51.330;19.378;2024-03-02T10:21:19;206.40;;;120.10;;
22565;SDS011;11449;51.330;19.378;2024-03-02T10:26:27;131.10;;;71.30;;
22565;SDS011;11449;51.330;19.378;2024-03-02T10:31:37;158.80;;;86.80;;
22565;SDS011;11449;51.330;19.378;2024-03-02T10:36:45;143.70;;;77.20;;
22565;SDS011;11449;51.330;19.378;2024-03-02T10:41:53;217.10;;;75.00;;
22565;SDS011;11449;51.330;19.378;2024-03-02T10:47:04;176.40;;;72.20;;
22565;SDS011;11449;51.330;19.378;2024-03-02T10:52:12;181.80;;;59.00;;
22565;SDS011;11449;51.330;19.378;2024-03-02T10:57:20;125.70;;;50.30;;
22565;SDS011;11449;51.330;19.378;2024-03-02T11:02:29;118.50;;;48.10;;
22565;SDS011;11449;51.330;19.378;2024-03-02T11:07:38;108.40;;;43.40;;
22565;SDS011;11449;51.330;19.378;2024-03-02T11:12:53;119.40;;;51.00;;
22565;SDS011;11449;51.330;19.378;2024-03-02T11:18:03;163.20;;;49.10;;
22565;SDS011;11449;51.330;19.378;2024-03-02T11:23:14;120.00;;;38.70;;
22565;SDS011;11449;51.330;19.378;2024-03-02T11:28:34;126.20;;;42.00;;
22565;SDS011;11449;51.330;19.378;2024-03-02T11:33:44;129.00;;;41.80;;
22565;SDS011;11449;51.330;19.378;2024-03-02T11:38:51;176.80;;;49.50;;
22565;SDS011;11449;51.330;19.378;2024-03-02T11:44:00;192.30;;;58.20;;
22565;SDS011;11449;51.330;19.378;2024-03-02T11:49:14;143.60;;;55.20;;
22565;SDS011;11449;51.330;19.378;2024-03-02T11:54:22;168.60;;;70.60;;
22565;SDS011;11449;51.330;19.378;2024-03-02T11:59:29;156.70;;;74.40;;
22565;SDS011;11449;51.330;19.378;2024-03-02T12:04:37;136.30;;;48.00;;
22565;SDS011;11449;51.330;19.378;2024-03-02T12:09:45;150.60;;;53.20;;
22565;SDS011;11449;51.330;19.378;2024-03-02T12:14:53;182.90;;;61.40;;
22565;SDS011;11449;51.330;19.378;2024-03-02T12:20:04;199.70;;;65.40;;
22565;SDS011;11449;51.330;19.378;2024-03-02T12:25:11;153.50;;;54.20;;
22565;SDS011;11449;51.330;19.378;2024-03-02T12:30:20;172.00;;;66.70;;
22565;SDS011;11449;51.330;19.378;2024-03-02T12:35:28;160.20;;;62.80;;
22565;SDS011;11449;51.330;19.378;2024-03-02T12:40:35;139.00;;;55.70;;
22565;SDS011;11449;51.330;19.378;2024-03-02T12:45:44;153.70;;;65.30;;
22565;SDS011;11449;51.330;19.378;2024-03-02T12:50:52;206.90;;;84.80;;
22565;SDS011;11449;51.330;19.378;2024-03-02T12:56:00;226.90;;;98.00;;
22565;SDS011;11449;51.330;19.378;2024-03-02T13:01:08;207.30;;;101.10;;
22565;SDS011;11449;51.330;19.378;2024-03-02T13:06:19;293.00;;;229.00;;
22565;SDS011;11449;51.330;19.378;2024-03-02T13:11:27;138.90;;;66.40;;
22565;SDS011;11449;51.330;19.378;2024-03-02T13:16:38;181.40;;;112.60;;
22565;SDS011;11449;51.330;19.378;2024-03-02T13:21:47;273.20;;;185.90;;
22565;SDS011;11449;51.330;19.378;2024-03-02T13:26:55;328.00;;;249.50;;
22565;SDS011;11449;51.330;19.378;2024-03-02T13:32:04;262.10;;;156.40;;
22565;SDS011;11449;51.330;19.378;2024-03-02T13:37:12;204.90;;;103.80;;
22565;SDS011;11449;51.330;19.378;2024-03-02T13:42:20;230.60;;;107.10;;
22565;SDS011;11449;51.330;19.378;2024-03-02T13:47:28;176.00;;;74.80;;
22565;SDS011;11449;51.330;19.378;2024-03-02T13:52:36;193.70;;;99.30;;
22565;SDS011;11449;51.330;19.378;2024-03-02T13:57:43;121.20;;;40.00;;
22565;SDS011;11449;51.330;19.378;2024-03-02T14:02:51;163.10;;;49.60;;
22565;SDS011;11449;51.330;19.378;2024-03-02T14:07:59;156.10;;;36.80;;
22565;SDS011;11449;51.330;19.378;2024-03-02T14:13:08;115.50;;;29.20;;
22565;SDS011;11449;51.330;19.378;2024-03-02T14:18:15;106.00;;;27.90;;
22565;SDS011;11449;51.330;19.378;2024-03-02T14:23:23;96.80;;;26.00;;
22565;SDS011;11449;51.330;19.378;2024-03-02T14:28:33;95.20;;;25.70;;
22565;SDS011;11449;51.330;19.378;2024-03-02T14:33:41;98.20;;;28.30;;
22565;SDS011;11449;51.330;19.378;2024-03-02T14:38:49;132.60;;;30.60;;
22565;SDS011;11449;51.330;19.378;2024-03-02T14:43:57;127.10;;;26.00;;
22565;SDS011;11449;51.330;19.378;2024-03-02T14:49:06;216.50;;;31.50;;
22565;SDS011;11449;51.330;19.378;2024-03-02T14:54:15;114.40;;;25.00;;
22565;SDS011;11449;51.330;19.378;2024-03-02T14:59:22;94.70;;;21.80;;
22565;SDS011;11449;51.330;19.378;2024-03-02T15:04:30;85.40;;;21.20;;
22565;SDS011;11449;51.330;19.378;2024-03-02T15:09:38;81.40;;;21.70;;
22565;SDS011;11449;51.330;19.378;2024-03-02T15:14:40;98.50;;;22.30;;
22565;SDS011;11449;51.330;19.378;2024-03-02T15:19:53;126.10;;;26.40;;
22565;SDS011;11449;51.330;19.378;2024-03-02T15:25:00;139.00;;;46.80;;
22565;SDS011;11449;51.330;19.378;2024-03-02T15:30:08;114.30;;;34.10;;
22565;SDS011;11449;51.330;19.378;2024-03-02T15:35:16;106.90;;;34.50;;
22565;SDS011;11449;51.330;19.378;2024-03-02T15:40:24;137.00;;;38.30;;
22565;SDS011;11449;51.330;19.378;2024-03-02T15:45:31;159.50;;;83.20;;
22565;SDS011;11449;51.330;19.378;2024-03-02T15:50:41;166.50;;;72.90;;
22565;SDS011;11449;51.330;19.378;2024-03-02T15:55:49;256.10;;;174.90;;
22565;SDS011;11449;51.330;19.378;2024-03-02T16:00:57;286.20;;;179.00;;
22565;SDS011;11449;51.330;19.378;2024-03-02T16:06:05;277.10;;;187.50;;
22565;SDS011;11449;51.330;19.378;2024-03-02T16:11:08;278.60;;;209.10;;
22565;SDS011;11449;51.330;19.378;2024-03-02T16:16:16;94.50;;;21.30;;
22565;SDS011;11449;51.330;19.378;2024-03-02T16:21:18;97.60;;;21.80;;
22565;SDS011;11449;51.330;19.378;2024-03-02T16:26:27;86.20;;;20.90;;
22565;SDS011;11449;51.330;19.378;2024-03-02T16:31:35;81.00;;;19.60;;
22565;SDS011;11449;51.330;19.378;2024-03-02T16:36:43;85.10;;;20.70;;
22565;SDS011;11449;51.330;19.378;2024-03-02T16:41:51;86.70;;;23.50;;
22565;SDS011;11449;51.330;19.378;2024-03-02T16:46:58;101.90;;;24.50;;
22565;SDS011;11449;51.330;19.378;2024-03-02T16:52:06;119.50;;;29.30;;
22565;SDS011;11449;51.330;19.378;2024-03-02T16:57:14;105.00;;;28.70;;
22565;SDS011;11449;51.330;19.378;2024-03-02T17:02:22;153.90;;;35.30;;
22565;SDS011;11449;51.330;19.378;2024-03-02T17:07:32;116.10;;;33.30;;
22565;SDS011;11449;51.330;19.378;2024-03-02T17:12:40;128.20;;;36.20;;
22565;SDS011;11449;51.330;19.378;2024-03-02T17:17:48;133.70;;;38.30;;
22565;SDS011;11449;51.330;19.378;2024-03-02T17:22:56;134.40;;;40.70;;
22565;SDS011;11449;51.330;19.378;2024-03-02T17:33:26;144.30;;;40.60;;
22565;SDS011;11449;51.330;19.378;2024-03-02T17:38:34;134.70;;;40.80;;
22565;SDS011;11449;51.330;19.378;2024-03-02T17:43:42;127.90;;;38.60;;
22565;SDS011;11449;51.330;19.378;2024-03-02T17:48:50;168.50;;;42.10;;
22565;SDS011;11449;51.330;19.378;2024-03-02T17:53:57;129.60;;;40.30;;
22565;SDS011;11449;51.330;19.378;2024-03-02T17:59:05;128.90;;;39.50;;
22565;SDS011;11449;51.330;19.378;2024-03-02T18:04:13;128.50;;;40.10;;
22565;SDS011;11449;51.330;19.378;2024-03-02T18:09:20;145.30;;;41.50;;
22565;SDS011;11449;51.330;19.378;2024-03-02T18:14:28;179.60;;;43.80;;
22565;SDS011;11449;51.330;19.378;2024-03-02T18:19:36;142.10;;;41.40;;
22565;SDS011;11449;51.330;19.378;2024-03-02T18:24:38;130.90;;;41.00;;
22565;SDS011;11449;51.330;19.378;2024-03-02T18:29:46;130.90;;;41.20;;
22565;SDS011;11449;51.330;19.378;2024-03-02T18:34:54;129.20;;;38.60;;
22565;SDS011;11449;51.330;19.378;2024-03-02T18:40:02;127.20;;;38.50;;
22565;SDS011;11449;51.330;19.378;2024-03-02T18:45:12;136.40;;;41.80;;
22565;SDS011;11449;51.330;19.378;2024-03-02T18:50:21;145.60;;;41.40;;
22565;SDS011;11449;51.330;19.378;2024-03-02T18:55:28;141.10;;;43.50;;
22565;SDS011;11449;51.330;19.378;2024-03-02T19:00:37;156.10;;;47.90;;
22565;SDS011;11449;51.330;19.378;2024-03-02T19:05:45;163.70;;;48.30;;
22565;SDS011;11449;51.330;19.378;2024-03-02T19:10:52;141.40;;;43.10;;
22565;SDS011;11449;51.330;19.378;2024-03-02T19:16:01;130.00;;;42.90;;
22565;SDS011;11449;51.330;19.378;2024-03-02T19:21:09;146.10;;;44.30;;
22565;SDS011;11449;51.330;19.378;2024-03-02T19:26:16;137.20;;;45.50;;
22565;SDS011;11449;51.330;19.378;2024-03-02T19:31:27;128.20;;;40.40;;
22565;SDS011;11449;51.330;19.378;2024-03-02T19:36:35;130.40;;;41.40;;
22565;SDS011;11449;51.330;19.378;2024-03-02T19:41:43;151.70;;;40.00;;
22565;SDS011;11449;51.330;19.378;2024-03-02T19:46:50;209.70;;;46.70;;
22565;SDS011;11449;51.330;19.378;2024-03-02T19:51:59;132.70;;;41.30;;
22565;SDS011;11449;51.330;19.378;2024-03-02T19:57:06;126.90;;;39.50;;
22565;SDS011;11449;51.330;19.378;2024-03-02T20:02:14;169.10;;;43.80;;
22565;SDS011;11449;51.330;19.378;2024-03-02T20:07:22;131.10;;;40.40;;
22565;SDS011;11449;51.330;19.378;2024-03-02T20:12:30;152.80;;;43.00;;
22565;SDS011;11449;51.330;19.378;2024-03-02T20:17:39;150.90;;;43.50;;
22565;SDS011;11449;51.330;19.378;2024-03-02T20:22:46;143.90;;;43.60;;
22565;SDS011;11449;51.330;19.378;2024-03-02T20:27:54;157.50;;;49.10;;
22565;SDS011;11449;51.330;19.378;2024-03-02T20:33:02;127.50;;;44.50;;
22565;SDS011;11449;51.330;19.378;2024-03-02T20:38:10;136.80;;;43.70;;
22565;SDS011;11449;51.330;19.378;2024-03-02T20:43:18;149.40;;;46.80;;
22565;SDS011;11449;51.330;19.378;2024-03-02T20:48:26;137.40;;;43.90;;
22565;SDS011;11449;51.330;19.378;2024-03-02T20:53:36;174.40;;;46.40;;
22565;SDS011;11449;51.330;19.378;2024-03-02T20:58:43;156.40;;;44.00;;
22565;SDS011;11449;51.330;19.378;2024-03-02T21:03:52;142.70;;;45.40;;
22565;SDS011;11449;51.330;19.378;2024-03-02T21:09:00;143.90;;;43.20;;
22565;SDS011;11449;51.330;19.378;2024-03-02T21:14:07;165.40;;;46.70;;
22565;SDS011;11449;51.330;19.378;2024-03-02T21:19:16;135.90;;;45.30;;
22565;SDS011;11449;51.330;19.378;2024-03-02T21:24:24;132.10;;;49.20;;
22565;SDS011;11449;51.330;19.378;2024-03-02T21:29:31;161.90;;;51.80;;
22565;SDS011;11449;51.330;19.378;2024-03-02T21:34:40;154.90;;;47.30;;
22565;SDS011;11449;51.330;19.378;2024-03-02T21:39:47;162.00;;;48.60;;
22565;SDS011;11449;51.330;19.378;2024-03-02T21:44:55;160.00;;;49.90;;
22565;SDS011;11449;51.330;19.378;2024-03-02T21:50:03;165.80;;;50.90;;
22565;SDS011;11449;51.330;19.378;2024-03-02T21:55:11;154.90;;;49.90;;
22565;SDS011;11449;51.330;19.378;2024-03-02T22:00:19;173.80;;;50.60;;
22565;SDS011;11449;51.330;19.378;2024-03-02T22:05:27;146.10;;;49.40;;
22565;SDS011;11449;51.330;19.378;2024-03-02T22:10:36;175.60;;;49.40;;
22565;SDS011;11449;51.330;19.378;2024-03-02T22:15:44;184.70;;;52.00;;
22565;SDS011;11449;51.330;19.378;2024-03-02T22:20:51;178.20;;;53.10;;
22565;SDS011;11449;51.330;19.378;2024-03-02T22:25:59;151.90;;;47.60;;
22565;SDS011;11449;51.330;19.378;2024-03-02T22:31:07;153.80;;;50.70;;
22565;SDS011;11449;51.330;19.378;2024-03-02T22:36:15;144.00;;;47.50;;
22565;SDS011;11449;51.330;19.378;2024-03-02T22:41:23;144.30;;;47.00;;
22565;SDS011;11449;51.330;19.378;2024-03-02T22:46:31;136.20;;;44.50;;
22565;SDS011;11449;51.330;19.378;2024-03-02T22:51:38;154.40;;;45.20;;
22565;SDS011;11449;51.330;19.378;2024-03-02T22:56:46;158.80;;;43.70;;
22565;SDS011;11449;51.330;19.378;2024-03-02T23:01:54;178.20;;;50.30;;
22565;SDS011;11449;51.330;19.378;2024-03-02T23:07:02;156.40;;;49.50;;
22565;SDS011;11449;51.330;19.378;2024-03-02T23:12:09;188.80;;;53.30;;
22565;SDS011;11449;51.330;19.378;2024-03-02T23:17:17;153.40;;;51.20;;
22565;SDS011;11449;51.330;19.378;2024-03-02T23:22:25;208.00;;;53.30;;
22565;SDS011;11449;51.330;19.378;2024-03-02T23:27:33;157.50;;;45.80;;
22565;SDS011;11449;51.330;19.378;2024-03-02T23:32:41;172.30;;;49.50;;
22565;SDS011;11449;51.330;19.378;2024-03-02T23:37:49;177.90;;;48.90;;
22565;SDS011;11449;51.330;19.378;2024-03-02T23:42:57;133.60;;;41.50;;
22565;SDS011;11449;51.330;19.378;2024-03-02T23:48:06;177.50;;;50.40;;
22565;SDS011;11449;51.330;19.378;2024-03-02T23:53:14;134.60;;;40.20;;
22565;SDS011;11449;51.330;19.378;2024-03-02T23:58:22;159.70;;;45.60;;
